Terminal Aerodrome Forecast
Issued by NWS Grand Forks, ND

Home | Current Version | Previous Version | Text Only | Print | Product List | Glossary Off
Versions: 1 2 3 4 5 6 7 8 9 10 11 12 13 14 15 16 17

000
FTUS43 KFGF 201140
TAFGFK
TAF
KGFK 201140Z 2012/2112 35013KT 2SM -SN BLSN OVC025
     FM201500 34010KT P6SM OVC030
      TEMPO 2015/2017 -SN OVC015
     FM201700 33011KT P6SM OVC035
     FM202200 30009KT P6SM BKN045
     FM210000 27008KT P6SM BKN080
     FM210200 25008KT P6SM SCT100=

USA.gov is the U.S. government's official web portal to all federal, state and local government web resources and services.